This is the latest recevied weather packets stored in our database for station/object KC1DMA. If no packets are shown the sender has not sent any weather packets the latest 10 day(s).
| Time | Temp. | Humidity | Pressure | Rain* | Wind** | Luminosity | Snow |
|---|---|---|---|---|---|---|---|
| 1777406590 | 18.89° C | 44% | 1020.7 hPa | - | - | 436 W/m² | - |
| 1777406286 | 18.89° C | 43% | 1020.7 hPa | - | - | 248 W/m² | - |
| 1777405985 | 20° C | 41% | 1020.7 hPa | - | - | 644 W/m² | - |
| 1777405681 | 20° C | 41% | 1020.8 hPa | - | - | 644 W/m² | - |
| 1777405379 | 20° C | 42% | 1021.1 hPa | - | - | 662 W/m² | - |
| 1777405075 | 19.44° C | 40% | 1021.1 hPa | - | - | 527 W/m² | - |
| 1777404769 | 20° C | 40% | 1021.2 hPa | - | - | 576 W/m² | - |
| 1777404466 | 19.44° C | 44% | 1021.2 hPa | - | - | 682 W/m² | - |
| 1777404162 | 19.44° C | 43% | 1021.1 hPa | - | - | 677 W/m² | - |
| 1777403858 | 19.44° C | 39% | 1021.2 hPa | - | - | 525 W/m² | - |
| 1777403553 | 19.44° C | 43% | 1021.1 hPa | - | - | 592 W/m² | - |
| 1777403253 | 19.44° C | 43% | 1021.3 hPa | - | - | 592 W/m² | - |
| 1777402952 | 19.44° C | 43% | 1021.1 hPa | - | - | 592 W/m² | - |
| 1777402648 | 19.44° C | 41% | 1021.1 hPa | - | - | 619 W/m² | - |
| 1777402347 | 19.44° C | 41% | 1021.1 hPa | - | - | 658 W/m² | - |
| 1777402045 | 19.44° C | 41% | 1021.3 hPa | - | - | 606 W/m² | - |
| 1777401740 | 18.89° C | 44% | 1021.3 hPa | - | - | 596 W/m² | - |
| 1777401436 | 19.44° C | 42% | 1021.6 hPa | - | - | 588 W/m² | - |
| 1777401132 | 19.44° C | 41% | 1021.5 hPa | - | - | 572 W/m² | - |
| 1777400827 | 19.44° C | 42% | 1021.7 hPa | - | - | 550 W/m² | - |
| 1777400524 | 18.89° C | 43% | 1021.6 hPa | - | - | 549 W/m² | - |
| 1777400221 | 19.44° C | 42% | 1021.5 hPa | - | - | 539 W/m² | - |
| 1777399917 | 19.44° C | 42% | 1021.7 hPa | - | - | 539 W/m² | - |
| 1777399615 | 20° C | 42% | 1021.7 hPa | - | - | 597 W/m² | - |
| 1777399312 | 20° C | 42% | 1021.9 hPa | - | - | 597 W/m² | - |
* Rain since midnight (hover to see other rain measurements)
** Current wind speed in m/s (hover to see current wind gust speed)